Time;durP1;ratioP1;P1;durP2;ratioP2;P2;SDS_P1;SDS_P2;PMS_P1;PMS_P2;Temp;Humidity;BMP_temperature;BMP_pressure;BME280_temperature;BME280_humidity;BME280_pressure;Samples;Min_cycle;Max_cycle;Signal;HPM_P1;HPM_P2
2021/12/25 05:02:16;;;;;;;3.08;2.85;;;-4.20;99.90;;;;;;5146652;23;20316;-68
2021/12/25 05:04:47;;;;;;;2.28;2.10;;;-4.20;99.90;;;;;;4908951;29;20214;-68
2021/12/25 05:07:14;;;;;;;2.33;2.20;;;-4.20;99.90;;;;;;4915612;29;20222;-69
2021/12/25 05:09:41;;;;;;;3.33;3.17;;;-4.20;99.90;;;;;;4908844;29;20547;-69
2021/12/25 05:12:08;;;;;;;2.25;2.15;;;-4.20;99.90;;;;;;4905199;29;20227;-68
2021/12/25 05:14:35;;;;;;;5.75;2.05;;;-4.20;99.90;;;;;;4903247;29;20352;-68
2021/12/25 05:17:02;;;;;;;3.08;2.88;;;-4.30;99.90;;;;;;4903136;29;20212;-68
2021/12/25 05:19:30;;;;;;;3.08;2.88;;;-4.30;99.90;;;;;;4905129;29;20262;-68
2021/12/25 05:21:57;;;;;;;2.20;2.05;;;-4.30;99.90;;;;;;4895641;29;20231;-68
2021/12/25 05:24:23;;;;;;;3.90;2.17;;;-4.30;99.90;;;;;;4893916;29;20550;-68
2021/12/25 05:26:50;;;;;;;3.00;2.80;;;-4.30;99.90;;;;;;4896121;29;20233;-68
2021/12/25 05:29:23;;;;;;;2.58;2.47;;;-4.30;99.90;;;;;;4896187;29;20199;-69
2021/12/25 05:31:50;;;;;;;2.25;2.15;;;-4.30;99.90;;;;;;4896229;29;20235;-69
2021/12/25 05:34:17;;;;;;;1.70;1.70;;;-4.30;99.90;;;;;;4896430;29;20294;-69
2021/12/25 05:36:45;;;;;;;3.42;3.10;;;-4.30;99.90;;;;;;4898535;29;20204;-69
2021/12/25 05:39:13;;;;;;;2.42;2.22;;;-4.30;99.90;;;;;;4896543;29;20211;-69
2021/12/25 05:41:40;;;;;;;3.20;3.00;;;-4.30;99.90;;;;;;4897022;29;20239;-69
2021/12/25 05:44:07;;;;;;;2.75;2.65;;;-4.30;99.90;;;;;;4896039;29;20583;-69
2021/12/25 05:46:33;;;;;;;2.65;2.55;;;-4.30;99.90;;;;;;4902416;29;20207;-70
2021/12/25 05:49:00;;;;;;;2.40;2.40;;;-4.30;99.90;;;;;;4896328;29;20247;-69
2021/12/25 05:51:27;;;;;;;3.33;3.00;;;-4.30;99.90;;;;;;4898548;29;20231;-69
2021/12/25 05:53:55;;;;;;;3.70;2.50;;;-4.40;99.90;;;;;;4881381;29;20273;-68
2021/12/25 05:56:23;;;;;;;2.38;2.20;;;-4.40;99.90;;;;;;4881882;29;20219;-69
2021/12/25 05:58:50;;;;;;;3.90;2.15;;;-4.40;99.90;;;;;;4895712;29;20204;-71
2021/12/25 06:01:16;;;;;;;5.68;2.30;;;-4.40;99.90;;;;;;4894179;29;20227;-69
2021/12/25 06:03:43;;;;;;;2.92;2.72;;;-4.40;99.90;;;;;;4885229;29;20641;-69
2021/12/25 06:06:10;;;;;;;2.65;2.45;;;-4.40;99.90;;;;;;4894544;29;20214;-69
2021/12/25 06:08:36;;;;;;;2.53;2.10;;;-4.40;99.90;;;;;;4893024;29;20576;-71
2021/12/25 06:11:05;;;;;;;2.70;2.47;;;-4.40;99.90;;;;;;4894896;29;20235;-69
2021/12/25 06:13:32;;;;;;;2.70;2.60;;;-4.40;99.90;;;;;;4890075;29;20249;-69
2021/12/25 06:15:59;;;;;;;2.20;2.20;;;-4.40;99.90;;;;;;4880424;29;20299;-69
2021/12/25 06:18:25;;;;;;;2.50;2.30;;;-4.50;99.90;;;;;;4891595;29;20211;-69
2021/12/25 06:20:52;;;;;;;2.17;2.10;;;-4.40;99.90;;;;;;4895010;29;20240;-68
2021/12/25 06:23:19;;;;;;;2.03;2.00;;;-4.50;99.90;;;;;;4896236;29;20203;-69
2021/12/25 06:25:45;;;;;;;2.33;2.17;;;-4.40;99.90;;;;;;4898764;29;20356;-68
2021/12/25 06:28:13;;;;;;;2.20;2.10;;;-4.40;99.90;;;;;;4899063;29;20255;-68
2021/12/25 06:30:43;;;;;;;3.42;3.22;;;-4.50;99.90;;;;;;4897168;29;20282;-67
2021/12/25 06:33:09;;;;;;;4.63;2.65;;;-4.40;99.90;;;;;;4898417;29;20203;-69
2021/12/25 06:35:36;;;;;;;2.80;2.70;;;-4.40;99.90;;;;;;4893792;29;20533;-67
2021/12/25 06:38:03;;;;;;;3.67;3.47;;;-4.50;99.90;;;;;;4880727;29;20279;-68
2021/12/25 06:40:30;;;;;;;2.80;2.60;;;-4.40;99.90;;;;;;4895400;29;20200;-68
2021/12/25 06:42:56;;;;;;;3.70;3.28;;;-4.40;99.90;;;;;;4899158;29;20211;-68
2021/12/25 06:45:24;;;;;;;2.78;2.58;;;-4.50;99.90;;;;;;4895613;29;20212;-70
2021/12/25 06:47:51;;;;;;;4.10;3.80;;;-4.50;99.90;;;;;;4886289;29;20210;-68
2021/12/25 06:50:18;;;;;;;3.05;2.85;;;-4.50;99.90;;;;;;4895789;29;20688;-68
2021/12/25 06:52:45;;;;;;;2.90;2.75;;;-4.50;99.90;;;;;;4883735;29;20310;-68
2021/12/25 06:55:13;;;;;;;6.53;4.63;;;-4.50;99.90;;;;;;4897850;29;20672;-69
2021/12/25 06:57:47;;;;;;;17.30;7.35;;;-4.50;99.90;;;;;;4884657;29;20396;-68
2021/12/25 07:00:15;;;;;;;19.73;7.43;;;-4.50;99.90;;;;;;4897382;29;20273;-68
2021/12/25 07:02:43;;;;;;;28.08;8.20;;;-4.50;99.90;;;;;;4886053;29;20208;-68
2021/12/25 07:05:10;;;;;;;29.50;8.00;;;-4.50;99.90;;;;;;4895658;29;20287;-68
2021/12/25 07:07:37;;;;;;;11.80;5.88;;;-4.50;99.90;;;;;;4891802;29;20206;-69
2021/12/25 07:10:05;;;;;;;8.82;5.20;;;-4.50;99.90;;;;;;4896835;29;20211;-69
2021/12/25 07:12:36;;;;;;;13.02;6.20;;;-4.50;99.90;;;;;;4896398;29;20628;-69
2021/12/25 07:15:03;;;;;;;12.13;5.70;;;-4.50;99.90;;;;;;4889059;29;20218;-68
2021/12/25 07:17:30;;;;;;;13.52;4.18;;;-4.50;99.90;;;;;;4897289;29;20211;-70
2021/12/25 07:19:58;;;;;;;12.60;4.38;;;-4.50;99.90;;;;;;4882506;29;20265;-69
2021/12/25 07:22:25;;;;;;;3.20;2.90;;;-4.50;99.90;;;;;;4893680;29;20227;-68
2021/12/25 07:24:51;;;;;;;5.32;3.33;;;-4.60;99.90;;;;;;4897527;29;20279;-69
2021/12/25 07:27:18;;;;;;;3.20;3.10;;;-4.60;99.90;;;;;;4897973;29;20532;-70
2021/12/25 07:29:45;;;;;;;4.32;3.83;;;-4.50;99.90;;;;;;4897607;29;20553;-68
2021/12/25 07:32:11;;;;;;;3.22;3.03;;;-4.50;99.90;;;;;;4897877;29;20362;-68
2021/12/25 07:34:39;;;;;;;3.75;2.83;;;-4.50;99.90;;;;;;4894973;29;20234;-68
2021/12/25 07:37:08;;;;;;;3.45;3.20;;;-4.50;99.90;;;;;;4883070;29;20204;-69
2021/12/25 07:39:34;;;;;;;4.35;3.95;;;-4.60;99.90;;;;;;4894169;29;20207;-70
2021/12/25 07:42:01;;;;;;;3.83;3.25;;;-4.60;99.90;;;;;;4895166;29;20227;-67
2021/12/25 07:44:28;;;;;;;3.35;3.15;;;-4.50;99.90;;;;;;4897730;29;20211;-68
2021/12/25 07:46:55;;;;;;;4.15;3.70;;;-4.60;99.90;;;;;;4897411;29;20268;-68
2021/12/25 07:49:22;;;;;;;4.55;4.15;;;-4.60;99.90;;;;;;4895567;29;20207;-67
2021/12/25 07:51:49;;;;;;;4.70;4.35;;;-4.50;99.90;;;;;;4896580;29;20223;-68
2021/12/25 07:54:17;;;;;;;4.13;3.85;;;-4.60;99.90;;;;;;4892126;29;20215;-69
2021/12/25 07:56:44;;;;;;;4.38;4.00;;;-4.50;99.90;;;;;;4891192;29;20275;-69
2021/12/25 07:59:11;;;;;;;8.55;5.47;;;-4.50;99.90;;;;;;4893305;29;20211;-70
2021/12/25 08:01:38;;;;;;;5.25;4.70;;;-4.50;99.90;;;;;;4896716;29;20239;-68
2021/12/25 08:04:05;;;;;;;10.68;5.53;;;-4.60;99.90;;;;;;4897143;29;20203;-69
2021/12/25 08:06:32;;;;;;;43.42;22.60;;;-4.50;99.90;;;;;;4897298;29;20210;-67
2021/12/25 08:09:00;;;;;;;19.60;10.45;;;-4.50;99.90;;;;;;4890274;29;20354;-68
2021/12/25 08:11:30;;;;;;;9.15;6.65;;;-4.50;99.90;;;;;;4897307;29;20724;-68
2021/12/25 08:13:58;;;;;;;4.90;3.45;;;-4.50;99.90;;;;;;4895928;29;20739;-68
2021/12/25 08:16:24;;;;;;;7.82;4.43;;;-4.50;99.90;;;;;;4886912;29;20208;-67
2021/12/25 08:18:51;;;;;;;41.67;23.00;;;-4.50;99.90;;;;;;4892150;29;20211;-67
2021/12/25 08:21:18;;;;;;;7.82;5.70;;;-4.50;99.90;;;;;;4896793;29;20772;-69
2021/12/25 08:23:45;;;;;;;9.27;6.55;;;-4.50;99.90;;;;;;4884301;29;20216;-68
2021/12/25 08:26:12;;;;;;;16.10;9.63;;;-4.50;99.90;;;;;;4894502;29;20211;-68
2021/12/25 08:28:40;;;;;;;8.02;5.45;;;-4.40;99.90;;;;;;4896502;29;20200;-69
2021/12/25 08:31:07;;;;;;;10.57;6.90;;;-4.40;99.90;;;;;;4896248;29;20246;-69
2021/12/25 08:33:33;;;;;;;10.30;7.07;;;-4.40;99.90;;;;;;4896399;29;20203;-68
2021/12/25 08:36:00;;;;;;;8.18;5.40;;;-4.40;99.90;;;;;;4896442;29;20262;-67
2021/12/25 08:38:27;;;;;;;5.70;5.20;;;-4.40;99.90;;;;;;4895010;29;20215;-67
2021/12/25 08:40:55;;;;;;;9.45;6.03;;;-4.40;99.90;;;;;;4896520;29;20250;-67
2021/12/25 08:43:24;;;;;;;5.78;5.15;;;-4.40;99.90;;;;;;4895719;29;20207;-68
2021/12/25 08:46:02;;;;;;;2.90;2.85;;;-4.30;99.90;;;;;;4895776;29;20207;-68
2021/12/25 08:48:30;;;;;;;4.07;3.75;;;-4.30;99.90;;;;;;4895163;29;20311;-68
2021/12/25 08:50:59;;;;;;;5.32;4.90;;;-4.30;99.90;;;;;;4892149;29;21013;-68
2021/12/25 08:53:27;;;;;;;4.18;3.88;;;-4.20;99.90;;;;;;4881123;29;20215;-68
2021/12/25 08:55:56;;;;;;;4.55;3.65;;;-4.20;99.90;;;;;;4892599;29;20287;-68
2021/12/25 08:58:23;;;;;;;4.57;4.38;;;-4.20;99.90;;;;;;4892699;29;20317;-69
2021/12/25 09:00:56;;;;;;;4.55;4.20;;;-4.20;99.90;;;;;;4892045;29;20249;-68
2021/12/25 09:03:23;;;;;;;16.83;12.68;;;-4.10;99.90;;;;;;4888895;29;20251;-69
2021/12/25 09:05:50;;;;;;;5.50;5.00;;;-4.10;99.90;;;;;;4882784;29;20208;-67
2021/12/25 09:08:16;;;;;;;4.40;4.07;;;-4.10;99.90;;;;;;4884605;29;20222;-67
2021/12/25 09:10:43;;;;;;;3.63;2.95;;;-4.10;99.90;;;;;;4890301;29;20223;-68
2021/12/25 09:13:10;;;;;;;4.05;3.85;;;-4.00;99.90;;;;;;4894746;29;20711;-68
2021/12/25 09:15:36;;;;;;;4.20;3.80;;;-4.00;99.90;;;;;;4890623;29;20315;-67
2021/12/25 09:18:05;;;;;;;5.13;4.82;;;-4.00;99.90;;;;;;4884776;29;20207;-69
2021/12/25 09:20:32;;;;;;;3.83;3.65;;;-3.90;99.90;;;;;;4878330;29;20208;-67
2021/12/25 09:22:58;;;;;;;5.63;4.40;;;-3.90;99.90;;;;;;4885483;29;20206;-67
2021/12/25 09:25:25;;;;;;;7.75;7.07;;;-3.80;99.90;;;;;;4894697;29;20215;-68
2021/12/25 09:27:52;;;;;;;5.63;5.22;;;-3.80;99.90;;;;;;4893653;29;20263;-67
2021/12/25 09:30:21;;;;;;;4.57;4.28;;;-3.70;99.90;;;;;;4884019;29;20573;-68
2021/12/25 09:32:48;;;;;;;5.63;4.00;;;-3.70;99.90;;;;;;4884216;29;20235;-67
2021/12/25 09:35:16;;;;;;;4.82;4.47;;;-3.60;99.90;;;;;;4890270;29;20208;-68
2021/12/25 09:37:43;;;;;;;6.15;5.65;;;-3.60;99.90;;;;;;4894771;29;20230;-67
2021/12/25 09:40:11;;;;;;;5.57;4.53;;;-3.50;99.90;;;;;;4893402;29;20214;-67
2021/12/25 09:42:40;;;;;;;4.43;3.85;;;-3.50;99.90;;;;;;4887549;29;20223;-69
2021/12/25 09:45:08;;;;;;;3.50;3.20;;;-3.40;99.90;;;;;;4883114;29;20224;-68
2021/12/25 09:47:35;;;;;;;12.50;5.30;;;-3.40;99.90;;;;;;4890227;29;20215;-67
2021/12/25 09:50:01;;;;;;;5.90;5.30;;;-3.30;99.90;;;;;;4893252;29;20218;-66
2021/12/25 09:52:29;;;;;;;4.40;4.03;;;-3.30;99.90;;;;;;4893446;29;20333;-67
2021/12/25 09:54:57;;;;;;;4.75;4.32;;;-3.20;99.90;;;;;;4894404;29;20226;-69
2021/12/25 09:57:23;;;;;;;3.60;3.40;;;-3.20;99.90;;;;;;4893683;29;20207;-67
2021/12/25 09:59:52;;;;;;;5.72;4.10;;;-3.10;99.90;;;;;;4885137;29;20480;-69
2021/12/25 10:02:19;;;;;;;7.07;4.20;;;-3.10;99.90;;;;;;4891076;29;20299;-69
2021/12/25 10:04:48;;;;;;;4.97;4.57;;;-3.00;99.90;;;;;;4896418;29;20219;-68
2021/12/25 10:07:22;;;;;;;6.03;5.43;;;-3.00;99.90;;;;;;4898441;29;20211;-69
2021/12/25 10:10:04;;;;;;;5.22;4.00;;;-2.90;99.90;;;;;;4892753;29;20209;-69
2021/12/25 10:12:36;;;;;;;4.80;4.20;;;-2.80;99.90;;;;;;4892227;29;20253;-69
2021/12/25 10:15:06;;;;;;;4.22;3.92;;;-2.80;99.90;;;;;;4883513;29;20576;-70
2021/12/25 10:17:33;;;;;;;3.35;3.25;;;-2.70;99.90;;;;;;4885385;29;21883;-69
2021/12/25 10:20:11;;;;;;;4.55;4.25;;;-2.70;99.90;;;;;;4885201;29;20204;-68
2021/12/25 10:22:56;;;;;;;3.60;3.33;;;-2.60;99.90;;;;;;4889419;29;20222;-67
2021/12/25 10:25:27;;;;;;;4.35;3.95;;;-2.60;99.90;;;;;;4892308;29;20211;-67
2021/12/25 10:27:56;;;;;;;4.05;3.75;;;-2.60;99.90;;;;;;4890265;29;20203;-68
2021/12/25 10:30:23;;;;;;;4.75;4.35;;;-2.50;99.90;;;;;;4881070;29;20211;-68
2021/12/25 10:32:50;;;;;;;3.65;3.55;;;-2.40;99.90;;;;;;4884962;29;20754;-69
2021/12/25 10:35:20;;;;;;;6.15;4.25;;;-2.40;99.90;;;;;;4878153;29;20208;-69
2021/12/25 10:37:50;;;;;;;4.85;4.45;;;-2.40;99.90;;;;;;4880203;29;20211;-69
2021/12/25 10:40:28;;;;;;;6.35;5.93;;;-2.30;99.90;;;;;;4891739;29;20207;-69
2021/12/25 10:42:59;;;;;;;5.63;4.00;;;-2.30;99.90;;;;;;4893970;29;20681;-69
2021/12/25 10:45:28;;;;;;;6.07;5.47;;;-2.20;99.90;;;;;;4887381;29;20211;-69
2021/12/25 10:48:07;;;;;;;4.78;4.38;;;-2.20;99.90;;;;;;4889574;29;20302;-69
2021/12/25 10:50:37;;;;;;;4.70;4.30;;;-2.10;99.90;;;;;;4896115;29;20222;-68
2021/12/25 10:53:21;;;;;;;7.30;6.65;;;-2.00;99.90;;;;;;4893439;29;20295;-72
2021/12/25 10:55:49;;;;;;;8.60;7.05;;;-2.00;99.90;;;;;;4892255;29;20306;-68
2021/12/25 10:58:21;;;;;;;5.75;5.15;;;-1.90;99.90;;;;;;4889798;29;20210;-69
2021/12/25 11:00:54;;;;;;;5.45;5.05;;;-1.90;99.90;;;;;;4890139;29;20615;-68
2021/12/25 11:03:28;;;;;;;7.82;5.80;;;-1.80;99.90;;;;;;4893067;29;20248;-69
2021/12/25 11:06:00;;;;;;;4.25;3.85;;;-1.70;99.90;;;;;;4893364;29;20208;-68
2021/12/25 11:08:27;;;;;;;7.85;5.10;;;-1.70;99.90;;;;;;4890717;29;20211;-69
2021/12/25 11:10:57;;;;;;;5.90;5.32;;;-1.60;99.90;;;;;;4890816;29;20639;-68
2021/12/25 11:13:26;;;;;;;9.57;5.68;;;-1.60;99.90;;;;;;4896753;29;20572;-68
2021/12/25 11:16:03;;;;;;;4.20;3.90;;;-1.50;99.90;;;;;;4886747;29;20212;-69
2021/12/25 11:18:30;;;;;;;5.50;5.10;;;-1.50;99.90;;;;;;4886699;29;20233;-69
2021/12/25 11:20:59;;;;;;;4.25;3.95;;;-1.40;99.90;;;;;;4891589;29;20234;-69
2021/12/25 11:23:27;;;;;;;3.05;2.90;;;-1.40;99.90;;;;;;4889820;29;20207;-69
2021/12/25 11:25:55;;;;;;;3.22;2.92;;;-1.40;99.90;;;;;;4888506;29;20218;-68
2021/12/25 11:28:22;;;;;;;4.72;4.10;;;-1.40;99.90;;;;;;4892518;29;20219;-68
2021/12/25 11:30:51;;;;;;;4.78;4.53;;;-1.30;99.90;;;;;;4897448;29;20259;-68
2021/12/25 11:33:18;;;;;;;6.05;5.03;;;-1.30;99.90;;;;;;4897283;29;20241;-67
2021/12/25 11:35:45;;;;;;;4.70;3.72;;;-1.20;99.90;;;;;;4897284;29;20219;-67
2021/12/25 11:38:13;;;;;;;5.10;4.68;;;-1.20;99.90;;;;;;4897157;29;20211;-68
2021/12/25 11:40:47;;;;;;;3.88;3.63;;;-1.20;99.90;;;;;;4895931;29;20572;-68
2021/12/25 11:43:16;;;;;;;3.72;3.63;;;-1.20;99.90;;;;;;4896573;29;20350;-68
2021/12/25 11:45:51;;;;;;;7.70;6.00;;;-1.10;99.90;;;;;;4896809;29;20215;-68
2021/12/25 11:48:19;;;;;;;4.28;3.60;;;-1.10;99.90;;;;;;4896395;29;20218;-68
2021/12/25 11:50:48;;;;;;;4.43;4.10;;;-1.10;99.90;;;;;;4896047;29;20223;-69
2021/12/25 11:53:21;;;;;;;7.93;3.83;;;-1.10;99.90;;;;;;4896417;29;20294;-69
2021/12/25 11:58:49;;;;;;;4.38;3.13;;;-1.00;99.90;;;;;;4897324;29;20323;-68
2021/12/25 12:01:34;;;;;;;2.42;2.42;;;-1.00;99.90;;;;;;4895402;29;20265;-69
2021/12/25 12:04:03;;;;;;;2.75;2.60;;;-0.90;99.90;;;;;;4896802;29;20293;-69
2021/12/25 12:07:00;;;;;;;1.60;1.00;;;-0.90;99.90;;;;;;4896515;29;20219;-70
2021/12/25 12:09:29;;;;;;;4.55;2.70;;;-0.90;99.90;;;;;;4896218;29;20230;-69
2021/12/25 12:12:16;;;;;;;3.60;3.42;;;-0.90;99.90;;;;;;4890129;29;20243;-68
2021/12/25 12:14:44;;;;;;;2.00;1.80;;;-0.80;99.90;;;;;;4877516;29;20258;-68
2021/12/25 12:17:26;;;;;;;3.60;1.98;;;-0.80;99.90;;;;;;4900072;29;20215;-68
2021/12/25 12:19:55;;;;;;;2.28;1.50;;;-0.80;99.90;;;;;;4893965;29;20207;-68
2021/12/25 12:22:46;;;;;;;1.92;1.83;;;-0.80;99.90;;;;;;4883663;29;20590;-68
2021/12/25 12:25:22;;;;;;;2.38;1.30;;;-0.70;99.90;;;;;;4877230;29;20216;-69
2021/12/25 12:27:52;;;;;;;1.33;1.30;;;-0.80;99.90;;;;;;4884914;29;20242;-67
2021/12/25 12:30:43;;;;;;;1.88;0.93;;;-0.70;99.90;;;;;;4895130;29;20585;-68
2021/12/25 12:33:31;;;;;;;1.60;1.17;;;-0.70;99.90;;;;;;4895372;29;20286;-68
2021/12/25 12:35:57;;;;;;;1.27;1.05;;;-0.70;99.90;;;;;;4895831;29;20230;-68
2021/12/25 12:38:31;;;;;;;0.85;0.85;;;-0.80;99.90;;;;;;4895678;29;20211;-68
2021/12/25 12:41:13;;;;;;;1.25;1.25;;;-0.80;99.90;;;;;;4894871;29;20227;-68
2021/12/25 12:44:09;;;;;;;8.50;1.40;;;-0.80;99.90;;;;;;4888573;29;20208;-68
2021/12/25 12:47:14;;;;;;;1.20;1.10;;;-0.70;99.90;;;;;;4864836;29;20222;-67
2021/12/25 12:49:58;;;;;;;1.00;1.00;;;-0.70;99.90;;;;;;4818551;29;20690;-68
2021/12/25 12:52:29;;;;;;;0.52;0.52;;;-0.70;99.90;;;;;;4818765;29;20238;-69
2021/12/25 12:54:57;;;;;;;2.60;2.15;;;-0.70;99.90;;;;;;4860672;29;20717;-68
2021/12/25 12:57:28;;;;;;;6.85;1.90;;;-0.70;99.90;;;;;;4877455;29;20216;-69
2021/12/25 12:59:57;;;;;;;1.55;1.23;;;-0.70;99.90;;;;;;4876527;29;20580;-68
2021/12/25 13:02:27;;;;;;;1.25;1.10;;;-0.70;99.90;;;;;;4876522;29;20648;-69
2021/12/25 13:04:58;;;;;;;1.15;0.98;;;-0.70;99.90;;;;;;4881303;29;20206;-69
2021/12/25 13:07:27;;;;;;;2.33;1.95;;;-0.70;99.90;;;;;;4895317;29;20234;-68
2021/12/25 13:10:05;;;;;;;3.80;3.70;;;-0.70;99.90;;;;;;4894585;29;20248;-68
2021/12/25 13:12:39;;;;;;;1.98;1.10;;;-0.70;99.90;;;;;;4895255;29;20335;-68
2021/12/25 13:15:12;;;;;;;1.90;1.80;;;-0.60;99.90;;;;;;4894986;29;20271;-69
2021/12/25 13:17:47;;;;;;;4.00;2.20;;;-0.60;99.90;;;;;;4895417;29;20221;-69
2021/12/25 13:20:15;;;;;;;12.68;8.25;;;-0.70;99.90;;;;;;4894490;29;20226;-69
2021/12/25 13:22:41;;;;;;;22.77;13.35;;;-0.60;99.90;;;;;;4891202;29;20303;-69
2021/12/25 13:25:13;;;;;;;3.58;3.22;;;-0.70;99.90;;;;;;4890931;29;20234;-69
2021/12/25 13:27:40;;;;;;;2.80;2.45;;;-0.60;99.90;;;;;;4894977;29;20219;-68
2021/12/25 13:30:10;;;;;;;12.43;6.05;;;-0.60;99.90;;;;;;4894292;29;20214;-68
2021/12/25 13:32:37;;;;;;;10.90;5.30;;;-0.70;99.90;;;;;;4893823;29;20239;-67
2021/12/25 13:35:06;;;;;;;10.88;8.57;;;-0.60;99.90;;;;;;4894267;29;20266;-68
2021/12/25 13:37:33;;;;;;;4.63;4.30;;;-0.60;99.90;;;;;;4894675;29;20259;-68
2021/12/25 13:39:59;;;;;;;5.78;5.32;;;-0.70;99.90;;;;;;4893545;29;20579;-69
2021/12/25 13:42:26;;;;;;;3.78;3.58;;;-0.70;99.90;;;;;;4894662;29;20732;-68
2021/12/25 13:44:53;;;;;;;3.60;3.35;;;-0.70;99.90;;;;;;4894590;29;20215;-68
2021/12/25 13:47:24;;;;;;;3.30;3.10;;;-0.70;99.90;;;;;;4894021;29;20246;-69
2021/12/25 13:49:54;;;;;;;0.98;0.93;;;-0.70;99.90;;;;;;4891310;29;20222;-67
2021/12/25 13:52:28;;;;;;;18.52;14.52;;;-0.80;99.90;;;;;;4886688;29;20235;-68
2021/12/25 13:55:02;;;;;;;5.05;3.85;;;-0.70;99.90;;;;;;4894286;29;20268;-68
2021/12/25 13:57:31;;;;;;;3.80;3.50;;;-0.80;99.90;;;;;;4894716;29;20207;-68
2021/12/25 14:00:02;;;;;;;2.00;1.90;;;-0.80;99.90;;;;;;4893132;29;20207;-67
2021/12/25 14:02:30;;;;;;;6.35;3.33;;;-0.80;99.90;;;;;;4894175;29;20235;-69
2021/12/25 14:04:57;;;;;;;3.90;3.53;;;-0.80;99.90;;;;;;4893966;29;20238;-67
2021/12/25 14:07:28;;;;;;;2.47;2.38;;;-0.90;99.90;;;;;;4894771;29;20215;-68
2021/12/25 14:09:58;;;;;;;3.25;2.20;;;-0.90;99.90;;;;;;4893255;29;20278;-68
2021/12/25 14:12:26;;;;;;;3.20;1.70;;;-0.90;99.90;;;;;;4884415;29;20232;-68
2021/12/25 14:14:54;;;;;;;2.30;2.15;;;-0.90;99.90;;;;;;4894340;29;20562;-67
2021/12/25 14:17:22;;;;;;;2.40;2.20;;;-1.00;99.90;;;;;;4893836;29;20211;-68
2021/12/25 14:19:48;;;;;;;3.28;2.55;;;-1.00;99.90;;;;;;4892996;29;20222;-67
2021/12/25 14:22:19;;;;;;;2.65;2.45;;;-1.00;99.90;;;;;;4894668;29;20235;-68
2021/12/25 14:24:51;;;;;;;2.97;2.78;;;-1.10;99.90;;;;;;4893691;29;20275;-68
2021/12/25 14:27:21;;;;;;;3.17;2.47;;;-1.10;99.90;;;;;;4894646;29;20275;-67
2021/12/25 14:29:49;;;;;;;2.47;2.28;;;-1.10;99.90;;;;;;4897125;29;20231;-67
2021/12/25 14:32:25;;;;;;;2.83;2.63;;;-1.20;99.90;;;;;;4896450;29;20239;-68
2021/12/25 14:34:53;;;;;;;5.35;4.00;;;-1.20;99.90;;;;;;4894391;29;20242;-69
2021/12/25 14:37:30;;;;;;;3.88;3.58;;;-1.20;99.90;;;;;;4894149;29;20230;-68
2021/12/25 14:40:04;;;;;;;9.07;4.50;;;-1.20;99.90;;;;;;4893126;29;20210;-68
2021/12/25 14:42:36;;;;;;;4.68;3.88;;;-1.30;99.90;;;;;;4890268;29;20235;-68
2021/12/25 14:45:05;;;;;;;5.63;3.33;;;-1.30;99.90;;;;;;4888685;29;20211;-69
2021/12/25 14:47:32;;;;;;;3.60;3.30;;;-1.40;99.90;;;;;;4898306;29;20245;-68
2021/12/25 14:49:58;;;;;;;4.47;4.10;;;-1.40;99.90;;;;;;4896598;29;20203;-68
2021/12/25 14:52:25;;;;;;;3.97;3.75;;;-1.40;99.90;;;;;;4896720;29;20239;-67
2021/12/25 14:54:52;;;;;;;3.65;3.00;;;-1.50;99.90;;;;;;4891774;29;20347;-68
2021/12/25 14:57:25;;;;;;;3.90;3.80;;;-1.50;99.90;;;;;;4895605;29;20215;-68
2021/12/25 14:59:52;;;;;;;4.82;4.43;;;-1.50;99.90;;;;;;4896615;29;20211;-68
2021/12/25 15:02:20;;;;;;;4.60;4.20;;;-1.60;99.90;;;;;;4897271;29;20243;-69
2021/12/25 15:04:50;;;;;;;4.93;4.55;;;-1.60;99.90;;;;;;4897384;29;20267;-67
2021/12/25 15:07:17;;;;;;;5.18;4.15;;;-1.60;99.90;;;;;;4897056;29;20211;-68
2021/12/25 15:09:46;;;;;;;9.00;4.03;;;-1.60;99.90;;;;;;4896111;29;20275;-69
2021/12/25 15:12:15;;;;;;;7.70;5.43;;;-1.70;99.90;;;;;;4890270;29;20335;-68
2021/12/25 15:14:46;;;;;;;11.20;7.15;;;-1.70;99.90;;;;;;4882882;29;20319;-69
2021/12/25 15:17:14;;;;;;;8.80;5.88;;;-1.80;99.90;;;;;;4883951;29;20672;-68
2021/12/25 15:19:43;;;;;;;6.35;5.63;;;-1.80;99.90;;;;;;4896121;29;20645;-69
2021/12/25 15:22:14;;;;;;;7.38;4.82;;;-1.80;99.90;;;;;;4883158;29;20274;-68
2021/12/25 15:24:49;;;;;;;6.80;5.35;;;-1.90;99.90;;;;;;4882695;29;20203;-68
2021/12/25 15:27:23;;;;;;;7.45;5.47;;;-2.00;99.90;;;;;;4890148;29;20270;-68
2021/12/25 15:29:53;;;;;;;7.30;5.82;;;-2.00;99.90;;;;;;4895511;29;20569;-67
2021/12/25 15:32:20;;;;;;;5.88;5.10;;;-2.00;99.90;;;;;;4895284;29;20227;-69
2021/12/25 15:34:51;;;;;;;6.70;6.15;;;-2.10;99.90;;;;;;4885409;29;20967;-68
2021/12/25 15:37:21;;;;;;;7.05;5.28;;;-2.10;99.90;;;;;;4887583;29;20678;-68
2021/12/25 15:39:48;;;;;;;5.60;5.10;;;-2.20;99.90;;;;;;4882039;29;20218;-68
2021/12/25 15:42:14;;;;;;;5.40;4.95;;;-2.20;99.90;;;;;;4896754;29;20689;-68
2021/12/25 15:44:42;;;;;;;6.03;5.43;;;-2.20;99.90;;;;;;4896164;29;20662;-69
2021/12/25 15:47:11;;;;;;;7.00;5.75;;;-2.30;99.90;;;;;;4894268;29;20616;-68
2021/12/25 15:49:37;;;;;;;8.15;6.10;;;-2.30;99.90;;;;;;4895357;29;20215;-69
2021/12/25 15:52:05;;;;;;;7.43;5.80;;;-2.30;99.90;;;;;;4878656;29;20291;-68
2021/12/25 15:54:38;;;;;;;8.80;6.30;;;-2.40;99.90;;;;;;4891900;29;20243;-70
2021/12/25 15:57:06;;;;;;;6.70;6.10;;;-2.40;99.90;;;;;;4891743;29;20580;-68
2021/12/25 15:59:35;;;;;;;7.03;6.30;;;-2.40;99.90;;;;;;4892829;29;20560;-68
2021/12/25 16:02:04;;;;;;;7.85;6.63;;;-2.40;99.90;;;;;;4884789;29;20252;-69
2021/12/25 16:04:32;;;;;;;7.18;6.47;;;-2.40;99.90;;;;;;4894969;29;20239;-69
2021/12/25 16:06:59;;;;;;;14.82;9.50;;;-2.40;99.90;;;;;;4896172;29;20255;-68
2021/12/25 16:09:26;;;;;;;14.38;9.80;;;-2.50;99.90;;;;;;4886825;29;20260;-69
2021/12/25 16:11:54;;;;;;;16.42;10.77;;;-2.50;99.90;;;;;;4889818;29;20731;-69
2021/12/25 16:14:21;;;;;;;21.65;12.90;;;-2.60;99.90;;;;;;4880587;29;20284;-68
2021/12/25 16:16:52;;;;;;;27.95;13.20;;;-2.60;99.90;;;;;;4895755;29;20688;-69
2021/12/25 16:19:19;;;;;;;27.55;14.30;;;-2.60;99.90;;;;;;4889956;29;20688;-69
2021/12/25 16:21:47;;;;;;;31.25;15.80;;;-2.60;99.90;;;;;;4876733;29;20725;-69
2021/12/25 16:24:16;;;;;;;26.40;12.77;;;-2.70;99.90;;;;;;4892874;29;20204;-69
2021/12/25 16:26:44;;;;;;;9.40;8.48;;;-2.70;99.90;;;;;;4895512;29;20207;-68
2021/12/25 16:29:11;;;;;;;16.48;9.85;;;-2.70;99.90;;;;;;4895387;29;20211;-69
2021/12/25 16:31:38;;;;;;;15.73;9.98;;;-2.70;99.90;;;;;;4884813;29;20307;-68
2021/12/25 16:34:07;;;;;;;16.35;10.43;;;-2.70;99.90;;;;;;4889278;29;20256;-69
2021/12/25 16:36:35;;;;;;;16.85;11.88;;;-2.80;99.90;;;;;;4882770;29;20215;-69
2021/12/25 16:39:07;;;;;;;13.50;9.48;;;-2.80;99.90;;;;;;4895201;29;20604;-68
2021/12/25 16:41:33;;;;;;;23.73;11.73;;;-2.80;99.90;;;;;;4895438;29;20669;-67
2021/12/25 16:44:00;;;;;;;21.85;12.90;;;-2.80;99.90;;;;;;4886915;29;20294;-68
2021/12/25 16:46:27;;;;;;;14.57;10.73;;;-2.80;99.90;;;;;;4895067;29;20208;-68
2021/12/25 16:48:54;;;;;;;13.43;11.20;;;-2.90;99.90;;;;;;4894847;29;20215;-67
2021/12/25 16:51:21;;;;;;;16.20;10.98;;;-2.80;99.90;;;;;;4894162;29;20231;-69
2021/12/25 16:53:47;;;;;;;12.50;9.70;;;-2.90;99.90;;;;;;4888508;29;20235;-68
2021/12/25 16:56:16;;;;;;;13.15;10.65;;;-2.90;99.90;;;;;;4888224;29;20207;-69
2021/12/25 16:58:42;;;;;;;13.25;10.38;;;-2.90;99.90;;;;;;4889854;29;20215;-66
2021/12/25 17:01:09;;;;;;;13.10;10.90;;;-2.90;99.90;;;;;;4887632;29;20891;-69
2021/12/25 17:03:36;;;;;;;11.63;9.63;;;-2.90;99.90;;;;;;4892671;29;20215;-68
2021/12/25 17:06:04;;;;;;;10.40;9.25;;;-2.90;99.90;;;;;;4890627;29;20207;-69
2021/12/25 17:08:31;;;;;;;16.98;11.30;;;-2.90;99.90;;;;;;4891653;29;20211;-69
2021/12/25 17:10:58;;;;;;;13.45;10.27;;;-2.90;99.90;;;;;;4887015;29;20242;-67
2021/12/25 17:13:27;;;;;;;15.70;10.98;;;-2.90;99.90;;;;;;4884437;29;20215;-68
2021/12/25 17:15:53;;;;;;;21.23;13.10;;;-3.00;99.90;;;;;;4885320;29;20680;-68
2021/12/25 17:18:20;;;;;;;15.45;11.25;;;-3.00;99.90;;;;;;4892324;29;20281;-66
2021/12/25 17:20:49;;;;;;;17.92;12.00;;;-3.00;99.90;;;;;;4889616;29;20228;-69
2021/12/25 17:23:17;;;;;;;23.80;15.35;;;-3.00;99.90;;;;;;4882739;29;21081;-69
2021/12/25 17:25:43;;;;;;;16.48;13.90;;;-3.00;99.90;;;;;;4892964;29;20212;-69
2021/12/25 17:28:10;;;;;;;26.73;15.32;;;-3.10;99.90;;;;;;4893302;29;20199;-69
2021/12/25 17:30:44;;;;;;;23.42;17.02;;;-3.10;99.90;;;;;;4891863;29;20220;-68
2021/12/25 17:33:12;;;;;;;22.60;16.85;;;-3.10;99.90;;;;;;4890137;29;20215;-68
2021/12/25 17:35:39;;;;;;;22.52;15.98;;;-3.10;99.90;;;;;;4874572;29;20759;-67
2021/12/25 17:38:05;;;;;;;29.27;17.52;;;-3.20;99.90;;;;;;4878771;29;20207;-68
2021/12/25 17:40:36;;;;;;;27.05;16.77;;;-3.20;99.90;;;;;;4892193;29;20210;-68
2021/12/25 17:43:05;;;;;;;29.05;17.88;;;-3.20;99.90;;;;;;4885738;29;20270;-69
2021/12/25 17:45:32;;;;;;;26.20;17.02;;;-3.20;99.90;;;;;;4892783;29;20573;-69
2021/12/25 17:48:00;;;;;;;23.77;17.67;;;-3.30;99.90;;;;;;4892000;29;20219;-69
2021/12/25 17:50:30;;;;;;;25.52;16.48;;;-3.30;99.90;;;;;;4877226;29;20206;-69
2021/12/25 17:52:58;;;;;;;16.27;13.73;;;-3.30;99.90;;;;;;4892384;29;20615;-68
2021/12/25 17:55:26;;;;;;;23.85;16.85;;;-3.30;99.90;;;;;;4892037;29;20227;-70
2021/12/25 17:57:54;;;;;;;23.75;14.68;;;-3.30;99.90;;;;;;4891868;29;20302;-68